Time;durP1;ratioP1;P1;durP2;ratioP2;P2;SDS_P1;SDS_P2;PMS_P1;PMS_P2;Temp;Humidity;BMP_temperature;BMP_pressure;BME280_temperature;BME280_humidity;BME280_pressure;Samples;Min_cycle;Max_cycle;Signal;HPM_P1;HPM_P2
2023/11/18 00:00:28;;;;;;;15.13;8.07;;;2.30;99.90;;;1.58;100.00;101328.97;5023868;28;20056;-79
2023/11/18 00:02:53;;;;;;;12.23;7.68;;;2.30;99.90;;;1.44;100.00;101327.53;5018136;28;20108;-78
2023/11/18 00:05:19;;;;;;;12.27;7.35;;;2.20;99.90;;;1.31;100.00;101322.44;5015676;28;20042;-79
2023/11/18 00:07:45;;;;;;;13.27;8.00;;;2.00;99.90;;;1.18;100.00;101327.19;5012123;28;20394;-79
2023/11/18 00:10:11;;;;;;;13.95;8.77;;;1.90;99.90;;;1.31;100.00;101327.81;5011788;28;20045;-79
2023/11/18 00:12:41;;;;;;;12.25;8.02;;;2.00;99.90;;;1.28;100.00;101326.22;5012916;28;20045;-79
2023/11/18 00:15:09;;;;;;;12.70;7.50;;;2.00;99.90;;;1.21;100.00;101321.56;5014961;28;20042;-78
2023/11/18 00:17:35;;;;;;;15.25;8.45;;;2.00;99.90;;;1.09;100.00;101316.28;5016565;28;20563;-79
2023/11/18 00:20:08;;;;;;;13.55;8.20;;;1.80;99.90;;;1.03;100.00;101316.00;5012898;28;20045;-78
2023/11/18 00:22:34;;;;;;;13.18;7.97;;;1.70;99.90;;;0.86;100.00;101318.38;5015453;28;20053;-78
2023/11/18 00:24:59;;;;;;;9.73;6.40;;;1.60;99.90;;;0.67;100.00;101309.25;5012012;28;20050;-79
2023/11/18 00:27:25;;;;;;;11.55;7.05;;;1.50;99.90;;;0.58;100.00;101320.81;5011914;28;20041;-79
2023/11/18 00:29:52;;;;;;;11.90;6.95;;;1.40;99.90;;;0.51;100.00;101320.50;5010067;28;20033;-79
2023/11/18 00:32:19;;;;;;;10.70;6.32;;;1.40;99.90;;;0.52;100.00;101332.06;4994110;28;20030;-79
2023/11/18 00:34:45;;;;;;;10.75;6.93;;;1.30;99.90;;;0.42;100.00;101319.44;5012402;28;20616;-79
2023/11/18 00:37:10;;;;;;;11.32;6.22;;;1.30;99.90;;;0.50;100.00;101324.16;5011335;28;20038;-79
2023/11/18 00:39:37;;;;;;;10.85;6.10;;;1.30;99.90;;;0.49;100.00;101309.03;5026837;28;20041;-79
2023/11/18 00:42:03;;;;;;;14.63;6.80;;;1.30;99.90;;;0.46;100.00;101309.31;5014177;28;20030;-79
2023/11/18 00:44:29;;;;;;;12.18;6.90;;;1.30;99.90;;;0.42;100.00;101305.19;5011799;28;20048;-79
2023/11/18 00:46:56;;;;;;;12.07;7.10;;;1.30;99.90;;;0.37;100.00;101300.22;5025344;28;20038;-79
2023/11/18 00:49:22;;;;;;;13.75;7.35;;;1.30;99.90;;;0.43;100.00;101297.00;5011400;28;20086;-79
2023/11/18 00:51:47;;;;;;;13.32;8.05;;;1.40;99.90;;;0.50;100.00;101291.06;5011776;28;20030;-79
2023/11/18 00:54:13;;;;;;;14.68;7.80;;;1.30;99.90;;;0.44;100.00;101271.00;5014777;28;20046;-78
2023/11/18 00:56:39;;;;;;;15.02;8.82;;;1.30;99.90;;;0.51;100.00;101282.03;5028510;28;20132;-79
2023/11/18 00:59:06;;;;;;;14.73;9.05;;;1.30;99.90;;;0.52;100.00;101281.03;5021156;28;20064;-79
2023/11/18 01:01:32;;;;;;;14.90;8.95;;;1.30;99.90;;;0.51;100.00;101272.16;5019024;28;20140;-79
2023/11/18 01:03:59;;;;;;;15.02;8.63;;;1.30;99.90;;;0.50;100.00;101261.53;5019146;28;20117;-78
2023/11/18 01:06:26;;;;;;;14.70;9.20;;;1.40;99.90;;;0.66;100.00;101278.00;5015280;28;20026;-78
2023/11/18 01:08:53;;;;;;;15.90;9.85;;;1.50;99.90;;;0.87;100.00;101274.38;5019655;28;20046;-78
2023/11/18 01:11:19;;;;;;;22.42;11.02;;;1.70;99.90;;;1.06;100.00;101261.97;5015331;28;20025;-78
2023/11/18 01:13:46;;;;;;;21.70;11.70;;;1.90;99.90;;;1.20;100.00;101256.19;5014873;28;20040;-78
2023/11/18 01:16:14;;;;;;;55.40;13.82;;;2.10;99.90;;;1.34;100.00;101251.41;5018928;28;20038;-78
2023/11/18 01:18:41;;;;;;;25.65;11.77;;;2.20;99.90;;;1.41;100.00;101234.53;5014493;28;20065;-78
2023/11/18 01:21:10;;;;;;;22.83;12.10;;;2.30;99.90;;;1.50;100.00;101230.16;5014454;28;20052;-78
2023/11/18 01:23:36;;;;;;;24.80;13.25;;;2.40;99.90;;;1.60;100.00;101227.44;5028342;28;20044;-78
2023/11/18 01:26:06;;;;;;;22.48;12.25;;;2.50;99.90;;;1.71;100.00;101221.91;5020782;28;20587;-78
2023/11/18 01:28:41;;;;;;;22.70;12.20;;;2.60;99.90;;;1.80;100.00;101220.19;5015207;28;20372;-78
2023/11/18 01:31:09;;;;;;;20.45;11.63;;;2.70;99.90;;;1.86;100.00;101225.00;5022745;28;20069;-79
2023/11/18 01:33:40;;;;;;;22.60;12.43;;;2.70;99.90;;;1.92;100.00;101217.34;5014511;28;20033;-79
2023/11/18 01:36:09;;;;;;;24.73;12.95;;;2.80;99.90;;;2.01;100.00;101213.75;5031404;28;20041;-78
2023/11/18 01:38:38;;;;;;;24.77;13.05;;;2.90;99.90;;;2.07;100.00;101204.25;5018693;28;20425;-79
2023/11/18 01:41:06;;;;;;;21.65;12.02;;;2.90;99.90;;;2.15;100.00;101199.84;5027069;28;20025;-78
2023/11/18 01:43:32;;;;;;;18.80;11.63;;;3.00;99.90;;;2.20;100.00;101209.31;5030327;28;20133;-78
2023/11/18 01:46:04;;;;;;;24.15;13.07;;;3.00;99.90;;;2.15;100.00;101194.47;5034955;28;20037;-78
2023/11/18 01:48:34;;;;;;;23.80;13.05;;;3.00;99.90;;;2.08;100.00;101193.34;5014594;28;20041;-78
2023/11/18 01:51:06;;;;;;;24.85;14.15;;;3.00;99.90;;;2.19;100.00;101207.63;5019949;28;20494;-78
2023/11/18 01:53:35;;;;;;;30.83;15.07;;;3.00;99.90;;;2.22;100.00;101201.94;5019324;28;20386;-78
2023/11/18 01:56:02;;;;;;;28.95;15.43;;;3.00;99.90;;;2.18;100.00;101189.78;5019289;28;20034;-78
2023/11/18 01:58:30;;;;;;;27.52;15.02;;;3.00;99.90;;;2.26;100.00;101193.44;5022304;28;20045;-78
2023/11/18 02:00:57;;;;;;;;;;;3.10;99.90;;;2.26;100.00;101196.13;5031172;28;20041;-78
2023/11/18 02:03:23;;;;;;;26.88;15.75;;;3.10;99.90;;;2.34;100.00;101202.59;5017042;28;20300;-78
2023/11/18 02:05:51;;;;;;;34.33;16.88;;;3.10;99.90;;;2.35;100.00;101194.34;5017223;28;20140;-78
2023/11/18 02:08:18;;;;;;;30.58;17.55;;;3.10;99.90;;;2.38;100.00;101204.00;5016232;28;20037;-78
2023/11/18 02:10:53;;;;;;;31.35;18.08;;;3.10;99.90;;;2.42;100.00;101206.25;5020231;28;20030;-78
2023/11/18 02:13:26;;;;;;;35.75;17.45;;;3.20;99.90;;;2.44;100.00;101206.94;5028917;28;20030;-78
2023/11/18 02:15:57;;;;;;;33.10;17.73;;;3.20;99.90;;;2.51;100.00;101212.56;5027666;28;20124;-79
2023/11/18 02:18:29;;;;;;;35.53;20.85;;;3.30;99.90;;;2.57;100.00;101211.97;5027983;28;20070;-79
2023/11/18 02:21:00;;;;;;;40.80;21.95;;;3.30;99.90;;;2.67;100.00;101205.69;5015152;28;20048;-79
2023/11/18 02:23:27;;;;;;;58.22;28.08;;;3.40;99.90;;;2.78;100.00;101186.59;5023712;28;20113;-79
2023/11/18 02:25:53;;;;;;;72.53;33.55;;;3.60;99.90;;;2.95;100.00;101190.31;5013837;28;20100;-79
2023/11/18 02:28:19;;;;;;;84.97;35.70;;;3.70;99.90;;;3.12;100.00;101179.69;5013666;28;20370;-78
2023/11/18 02:30:46;;;;;;;97.65;40.80;;;3.90;99.90;;;3.20;100.00;101173.50;5012089;28;20044;-77
2023/11/18 02:33:38;;;;;;;95.50;40.42;;;4.00;99.90;;;3.26;100.00;101157.56;5026077;28;20066;-77
2023/11/18 02:36:14;;;;;;;96.47;41.47;;;4.10;99.90;;;3.35;100.00;101165.72;5017399;28;20052;-77
2023/11/18 02:38:49;;;;;;;98.70;41.83;;;4.20;99.90;;;3.48;100.00;101171.56;5013758;28;20065;-77
2023/11/18 02:41:18;;;;;;;99.00;41.90;;;4.20;99.90;;;3.55;100.00;101178.00;5013716;28;20042;-77
2023/11/18 02:43:44;;;;;;;100.35;41.15;;;4.30;99.90;;;3.60;100.00;101175.69;5013521;28;20053;-78
2023/11/18 02:46:15;;;;;;;99.33;40.90;;;4.30;99.90;;;3.59;100.00;101170.47;5013415;28;20057;-78
2023/11/18 02:48:43;;;;;;;93.13;40.03;;;4.40;99.90;;;3.68;100.00;101169.50;5018597;28;20036;-78
2023/11/18 02:51:11;;;;;;;89.85;40.38;;;4.40;99.90;;;3.69;100.00;101176.59;5013066;28;20401;-78
2023/11/18 02:53:37;;;;;;;99.63;40.22;;;4.40;99.90;;;3.70;100.00;101175.59;5012665;28;20034;-79
2023/11/18 02:56:04;;;;;;;85.07;39.08;;;4.40;99.90;;;3.70;100.00;101180.97;5028346;28;20037;-77
2023/11/18 02:58:30;;;;;;;65.53;31.52;;;4.40;99.90;;;3.60;100.00;101175.69;5024180;28;20577;-77
2023/11/18 03:00:59;;;;;;;54.30;27.90;;;4.40;99.90;;;3.68;100.00;101192.94;5013051;28;20065;-77
2023/11/18 03:03:27;;;;;;;46.35;24.40;;;4.30;99.90;;;3.62;100.00;101190.88;5012793;28;20142;-78
2023/11/18 03:05:53;;;;;;;47.60;25.05;;;4.30;99.90;;;3.58;100.00;101203.81;5017013;28;20131;-78
2023/11/18 03:08:18;;;;;;;46.78;23.45;;;4.20;99.90;;;3.44;100.00;101180.94;5012540;28;20037;-78
2023/11/18 03:10:44;;;;;;;44.42;23.23;;;4.20;99.90;;;3.46;100.00;101200.56;5012831;28;20092;-78
2023/11/18 03:13:12;;;;;;;37.85;20.77;;;4.10;99.90;;;3.40;100.00;101209.25;5012321;28;20758;-78
2023/11/18 03:15:38;;;;;;;40.55;21.50;;;4.00;99.90;;;3.31;100.00;101208.31;5012895;28;20557;-78
2023/11/18 03:18:05;;;;;;;38.30;21.52;;;4.00;99.90;;;3.25;100.00;101217.03;5012516;28;20076;-78
2023/11/18 03:20:33;;;;;;;39.85;21.38;;;3.90;99.90;;;3.17;100.00;101217.81;5017669;28;20461;-77
2023/11/18 03:23:05;;;;;;;36.25;20.40;;;3.80;99.90;;;2.99;100.00;101207.88;5018773;28;20072;-78
2023/11/18 03:25:30;;;;;;;42.78;21.75;;;3.80;99.90;;;3.10;100.00;101241.00;5010521;28;20560;-77
2023/11/18 03:27:56;;;;;;;43.63;21.98;;;3.70;99.90;;;3.08;100.00;101241.16;5012494;28;20034;-78
2023/11/18 03:30:22;;;;;;;46.40;24.80;;;3.70;99.90;;;3.08;100.00;101246.56;5012926;28;20034;-78
2023/11/18 03:32:48;;;;;;;51.78;26.08;;;3.70;99.90;;;3.12;100.00;101234.47;5025403;28;20445;-78
2023/11/18 03:35:14;;;;;;;45.72;25.50;;;3.80;99.90;;;3.15;100.00;101238.69;5010932;28;20474;-79
2023/11/18 03:37:41;;;;;;;47.72;26.13;;;3.80;99.90;;;3.15;100.00;101233.28;5010962;28;20552;-78
2023/11/18 03:40:14;;;;;;;56.43;29.37;;;3.80;99.90;;;3.16;100.00;101241.25;5017404;28;20069;-77
2023/11/18 03:42:42;;;;;;;54.28;28.10;;;3.80;99.90;;;3.21;100.00;101245.31;5011964;28;20053;-77
2023/11/18 03:45:09;;;;;;;53.63;27.98;;;3.80;99.90;;;3.23;100.00;101240.63;5012478;28;20041;-78
2023/11/18 03:47:35;;;;;;;63.97;31.00;;;3.90;99.90;;;3.27;100.00;101237.47;5012052;28;20116;-77
2023/11/18 03:50:01;;;;;;;49.47;26.63;;;3.90;99.90;;;3.22;100.00;101230.84;5012099;28;21881;-78
2023/11/18 03:52:27;;;;;;;57.10;27.88;;;4.00;99.90;;;3.30;100.00;101247.94;5011483;28;20038;-78
2023/11/18 03:54:55;;;;;;;58.08;28.42;;;3.90;99.90;;;3.34;100.00;101240.41;5010876;28;20117;-77
2023/11/18 03:57:21;;;;;;;60.40;29.38;;;4.00;99.90;;;3.38;100.00;101244.47;5015178;28;20057;-78
2023/11/18 03:59:47;;;;;;;49.42;25.52;;;4.00;99.90;;;3.40;100.00;101241.63;5017394;28;20069;-78
2023/11/18 04:02:12;;;;;;;50.08;26.08;;;4.10;99.90;;;3.41;100.00;101236.06;5015155;28;20084;-77
2023/11/18 04:04:39;;;;;;;45.33;24.48;;;4.10;99.90;;;3.43;100.00;101227.81;5011812;28;20030;-78
2023/11/18 04:07:06;;;;;;;41.20;23.25;;;4.10;99.90;;;3.40;100.00;101230.81;5011992;28;20033;-78
2023/11/18 04:09:32;;;;;;;39.33;21.17;;;4.10;99.90;;;3.38;100.00;101227.44;5011581;28;20083;-78
2023/11/18 04:11:58;;;;;;;42.38;23.02;;;4.10;99.90;;;3.35;100.00;101222.34;5015803;28;20048;-78
2023/11/18 04:14:25;;;;;;;42.78;22.23;;;4.10;99.90;;;3.45;100.00;101231.22;5031211;28;20045;-78
2023/11/18 04:16:51;;;;;;;47.50;24.53;;;4.10;99.90;;;3.47;100.00;101217.56;5017569;28;20052;-78
2023/11/18 04:19:17;;;;;;;44.28;23.40;;;4.20;99.90;;;3.50;100.00;101217.25;5015609;28;20038;-78
2023/11/18 04:21:48;;;;;;;50.13;26.20;;;4.20;99.90;;;3.55;100.00;101221.19;5012105;28;20100;-78
2023/11/18 04:24:14;;;;;;;54.70;28.83;;;4.20;99.90;;;3.48;100.00;101187.75;5011867;28;20350;-78
2023/11/18 04:26:41;;;;;;;58.20;30.90;;;4.30;99.90;;;3.63;100.00;101201.50;5011791;28;20489;-77
2023/11/18 04:29:07;;;;;;;65.63;31.55;;;4.30;99.90;;;3.58;100.00;101209.22;5011333;28;20037;-77
2023/11/18 04:31:34;;;;;;;65.60;32.50;;;4.30;99.90;;;3.54;100.00;101218.63;5011782;28;20173;-78
2023/11/18 04:34:00;;;;;;;63.27;31.70;;;4.30;99.90;;;3.54;100.00;101215.94;5011838;28;20120;-78
2023/11/18 04:36:26;;;;;;;64.32;31.73;;;4.30;99.90;;;3.52;100.00;101215.25;5011590;28;20044;-78
2023/11/18 04:38:52;;;;;;;75.50;35.45;;;4.20;99.90;;;3.47;100.00;101213.03;5011521;28;20121;-78
2023/11/18 04:41:18;;;;;;;70.38;34.35;;;4.20;99.90;;;3.48;100.00;101209.34;5017099;28;20034;-77
2023/11/18 04:43:44;;;;;;;71.70;34.88;;;4.20;99.90;;;3.51;100.00;101208.16;5015663;28;20053;-77
2023/11/18 04:46:10;;;;;;;73.93;35.05;;;4.20;99.90;;;3.53;100.00;101209.72;5011011;28;20069;-77
2023/11/18 04:48:36;;;;;;;69.07;33.30;;;4.20;99.90;;;3.53;100.00;101209.72;5018137;28;20059;-78
2023/11/18 04:51:02;;;;;;;75.25;36.03;;;4.30;99.90;;;3.51;100.00;101198.22;5012705;28;20477;-78
2023/11/18 04:53:28;;;;;;;73.85;36.30;;;4.20;99.90;;;3.57;100.00;101200.28;5011468;28;20129;-78
2023/11/18 04:55:54;;;;;;;80.50;36.90;;;4.20;99.90;;;3.51;100.00;101197.34;5016716;28;20089;-77
2023/11/18 04:58:20;;;;;;;78.68;37.10;;;4.30;99.90;;;3.47;100.00;101196.84;5010971;28;20096;-77
2023/11/18 05:00:48;;;;;;;79.88;36.15;;;4.20;99.90;;;3.45;100.00;101188.06;5011068;28;20050;-78
2023/11/18 05:03:13;;;;;;;77.67;36.67;;;4.20;99.90;;;3.43;100.00;101180.13;5010852;28;20466;-78
2023/11/18 05:05:40;;;;;;;84.85;38.13;;;4.20;99.90;;;3.40;100.00;101184.97;5011537;28;20066;-78
2023/11/18 05:08:07;;;;;;;75.97;36.45;;;4.20;99.90;;;3.37;100.00;101191.53;5011282;28;20492;-78
2023/11/18 05:10:34;;;;;;;73.63;35.95;;;4.10;99.90;;;3.31;100.00;101181.34;5011044;28;20060;-78
2023/11/18 05:13:01;;;;;;;78.75;37.80;;;4.10;99.90;;;3.42;100.00;101185.66;5011206;28;20065;-78
2023/11/18 05:15:27;;;;;;;79.72;37.72;;;4.10;99.90;;;3.48;100.00;101185.06;5012058;28;20103;-78
2023/11/18 05:17:54;;;;;;;74.45;36.15;;;4.20;99.90;;;3.54;100.00;101175.47;5017202;28;20117;-77
2023/11/18 05:20:21;;;;;;;72.65;37.45;;;4.20;99.90;;;3.57;100.00;101173.31;5010817;28;20044;-78
2023/11/18 05:22:48;;;;;;;76.82;35.85;;;4.30;99.90;;;3.60;100.00;101170.28;5011061;28;20034;-78
2023/11/18 05:25:14;;;;;;;72.78;36.13;;;4.30;99.90;;;3.64;100.00;101164.56;5020611;28;20489;-78
2023/11/18 05:27:40;;;;;;;70.25;35.05;;;4.30;99.90;;;3.64;100.00;101165.44;5011159;28;20107;-78
2023/11/18 05:30:11;;;;;;;71.10;34.70;;;4.40;99.90;;;3.72;100.00;101162.78;5010493;28;20030;-78
2023/11/18 05:32:37;;;;;;;74.45;35.67;;;4.40;99.90;;;3.67;100.00;101148.91;5017300;28;20053;-78
2023/11/18 05:35:04;;;;;;;75.10;36.80;;;4.40;99.90;;;3.73;100.00;101153.66;5011210;28;20053;-78
2023/11/18 05:37:35;;;;;;;73.68;37.03;;;4.50;99.90;;;3.69;100.00;101156.84;5015443;28;20041;-78
2023/11/18 05:40:06;;;;;;;67.82;34.45;;;4.40;99.90;;;3.71;100.00;101158.38;5012048;28;20498;-78
2023/11/18 05:42:37;;;;;;;74.95;36.13;;;4.40;99.90;;;3.68;100.00;101161.41;5018542;28;20033;-78
2023/11/18 05:45:07;;;;;;;70.88;35.75;;;4.40;99.90;;;3.66;100.00;101144.53;5014221;28;20097;-78
2023/11/18 05:47:34;;;;;;;79.30;36.30;;;4.40;99.90;;;3.60;100.00;101143.31;5018144;28;20044;-78
2023/11/18 05:50:01;;;;;;;80.80;38.95;;;4.40;99.90;;;3.56;100.00;101147.31;5020809;28;20037;-78
2023/11/18 05:52:27;;;;;;;84.70;38.38;;;4.30;99.90;;;3.45;100.00;101134.94;5014040;28;20446;-78
2023/11/18 05:54:52;;;;;;;82.82;38.10;;;4.20;99.90;;;3.43;100.00;101130.69;5014104;28;20055;-78
2023/11/18 05:57:18;;;;;;;85.20;39.00;;;4.20;99.90;;;3.47;100.00;101140.19;5014423;28;20037;-78
2023/11/18 05:59:48;;;;;;;85.68;40.28;;;4.20;99.90;;;3.41;100.00;101124.63;5014095;28;20042;-80
2023/11/18 06:02:18;;;;;;;83.25;38.67;;;4.10;99.90;;;3.41;100.00;101132.72;5013822;28;20093;-78
2023/11/18 06:04:47;;;;;;;91.63;43.42;;;4.10;99.90;;;3.35;100.00;101139.59;5013785;28;20045;-79
2023/11/18 06:07:16;;;;;;;92.25;41.80;;;4.10;99.90;;;3.24;100.00;101126.34;5012678;28;20034;-80
2023/11/18 06:09:44;;;;;;;93.32;41.53;;;4.10;99.90;;;3.20;100.00;101122.28;5017447;28;20045;-79
2023/11/18 06:12:10;;;;;;;92.03;41.88;;;4.10;99.90;;;3.23;100.00;101136.31;5013807;28;20042;-80
2023/11/18 06:14:37;;;;;;;88.90;39.95;;;4.00;99.90;;;3.15;100.00;101125.44;5011486;28;20046;-79
2023/11/18 06:17:03;;;;;;;85.50;40.63;;;3.90;99.90;;;3.12;100.00;101128.44;5013125;28;20026;-81
2023/11/18 06:19:29;;;;;;;93.22;41.00;;;3.90;99.90;;;3.11;100.00;101140.22;5011503;28;20041;-83
2023/11/18 06:21:55;;;;;;;96.03;40.53;;;3.80;99.90;;;3.06;100.00;101142.56;5024749;28;20042;-83
2023/11/18 06:24:21;;;;;;;94.15;39.40;;;3.80;99.90;;;2.95;100.00;101135.56;5011738;28;20042;-81
2023/11/18 06:26:49;;;;;;;88.93;39.55;;;3.70;99.90;;;2.93;100.00;101151.03;5018422;28;20489;-79
2023/11/18 06:29:15;;;;;;;95.00;40.15;;;3.60;99.90;;;2.84;100.00;101142.00;5012465;28;20069;-78
2023/11/18 06:31:42;;;;;;;99.25;40.17;;;3.70;99.90;;;2.88;100.00;101146.09;5014248;28;20067;-77
2023/11/18 06:34:08;;;;;;;100.45;41.70;;;3.70;99.90;;;2.93;100.00;101151.91;5017730;28;20044;-78
2023/11/18 06:36:35;;;;;;;109.07;42.25;;;3.70;99.90;;;2.91;100.00;101145.78;5019997;28;20390;-79
2023/11/18 06:39:01;;;;;;;99.30;42.25;;;3.70;99.90;;;2.88;100.00;101141.56;5013371;28;20074;-78
2023/11/18 06:41:33;;;;;;;98.82;40.38;;;3.70;99.90;;;2.87;100.00;101134.47;5021282;28;20085;-78
2023/11/18 06:44:09;;;;;;;105.20;41.22;;;3.60;99.90;;;2.84;100.00;101133.94;5013882;28;20042;-78
2023/11/18 06:46:36;;;;;;;100.75;40.13;;;3.60;99.90;;;2.82;100.00;101130.53;5013487;28;20041;-78
2023/11/18 06:49:03;;;;;;;105.45;40.65;;;3.60;99.90;;;2.86;100.00;101140.00;5012722;28;20042;-77
2023/11/18 06:51:34;;;;;;;102.47;38.78;;;3.60;99.90;;;2.77;100.00;101146.34;5015166;28;20036;-79
2023/11/18 06:54:08;;;;;;;89.82;37.97;;;3.50;99.90;;;2.66;100.00;101150.97;5011566;28;20042;-78
2023/11/18 06:56:38;;;;;;;84.45;35.72;;;3.40;99.90;;;2.55;100.00;101153.84;5011963;28;20040;-77
2023/11/18 06:59:06;;;;;;;80.90;36.35;;;3.30;99.90;;;2.47;100.00;101156.47;5012985;28;20077;-78
2023/11/18 07:01:35;;;;;;;78.53;36.28;;;3.20;99.90;;;2.50;100.00;101151.59;5014207;28;20057;-77
2023/11/18 07:04:02;;;;;;;74.55;35.13;;;3.20;99.90;;;2.53;100.00;101153.16;5018642;28;20038;-77
2023/11/18 07:06:27;;;;;;;86.90;36.97;;;3.30;99.90;;;2.57;100.00;101143.75;5012710;28;20474;-77
2023/11/18 07:09:00;;;;;;;94.05;37.80;;;3.30;99.90;;;2.64;100.00;101141.31;5013080;28;20145;-78
2023/11/18 07:11:26;;;;;;;87.05;34.47;;;3.40;99.90;;;2.65;100.00;101138.47;5012772;28;20461;-80
2023/11/18 07:13:59;;;;;;;103.68;37.78;;;3.40;99.90;;;2.70;100.00;101135.31;5018613;28;20117;-78
2023/11/18 07:16:25;;;;;;;89.05;36.55;;;3.50;99.90;;;2.68;100.00;101119.31;5032835;28;20030;-79
2023/11/18 07:18:51;;;;;;;89.97;35.08;;;3.50;99.90;;;2.80;100.00;101128.03;5015405;28;20037;-78
2023/11/18 07:21:17;;;;;;;96.50;37.13;;;3.60;99.90;;;2.89;100.00;101128.91;5018893;28;20033;-78
2023/11/18 07:23:43;;;;;;;97.15;38.28;;;3.70;99.90;;;2.94;100.00;101128.47;5012897;28;20037;-78
2023/11/18 07:26:09;;;;;;;117.53;42.28;;;3.70;99.90;;;2.96;100.00;101119.22;5021550;28;20030;-77
2023/11/18 07:28:36;;;;;;;118.80;41.80;;;3.80;99.90;;;3.07;100.00;101096.59;5023352;28;20038;-79
2023/11/18 07:31:04;;;;;;;134.82;43.28;;;3.90;99.90;;;3.18;100.00;101090.06;5015593;28;20045;-80
2023/11/18 07:33:33;;;;;;;134.50;43.00;;;4.00;99.90;;;3.17;100.00;101093.75;5022099;28;20049;-78
2023/11/18 07:36:00;;;;;;;141.98;43.75;;;4.00;99.90;;;3.19;100.00;101080.13;5010697;28;20056;-78
2023/11/18 07:38:27;;;;;;;133.95;44.22;;;4.10;99.90;;;3.15;100.00;101075.06;5018808;28;20045;-78
2023/11/18 07:40:56;;;;;;;133.83;45.27;;;4.00;99.90;;;3.21;100.00;101091.59;5021650;28;20053;-79
2023/11/18 07:43:23;;;;;;;119.78;41.42;;;4.10;99.90;;;3.23;100.00;101076.13;5027016;28;20302;-79
2023/11/18 07:45:52;;;;;;;129.15;42.15;;;4.10;99.90;;;3.23;100.00;101095.00;5012586;28;20033;-77
2023/11/18 07:48:18;;;;;;;133.40;43.25;;;4.10;99.90;;;3.27;100.00;101104.47;5012656;28;20034;-77
2023/11/18 07:50:44;;;;;;;131.80;43.42;;;4.20;99.90;;;3.29;100.00;101099.75;5016692;28;20425;-77
2023/11/18 07:53:10;;;;;;;141.82;44.85;;;4.20;99.90;;;3.32;100.00;101104.84;5012230;28;20469;-78
2023/11/18 07:55:40;;;;;;;143.55;45.15;;;4.30;99.90;;;3.34;100.00;101110.06;5012349;28;20041;-78
2023/11/18 07:58:10;;;;;;;139.40;44.40;;;4.30;99.90;;;3.37;100.00;101123.25;5011770;28;20375;-77
2023/11/18 08:00:45;;;;;;;142.20;46.13;;;4.30;99.90;;;3.39;100.00;101123.94;5026913;28;20068;-77
2023/11/18 08:03:11;;;;;;;142.98;45.65;;;4.30;99.90;;;3.35;100.00;101150.38;5011776;28;20412;-77
2023/11/18 08:05:45;;;;;;;141.73;45.88;;;4.30;99.90;;;3.34;100.00;101151.41;5008209;28;20029;-78
2023/11/18 08:08:16;;;;;;;139.20;44.42;;;4.30;99.90;;;3.37;100.00;101153.78;5012567;28;20478;-78
2023/11/18 08:10:44;;;;;;;134.85;44.17;;;4.30;99.90;;;3.39;100.00;101162.56;5023502;28;20124;-78
2023/11/18 08:13:11;;;;;;;136.07;44.63;;;4.30;99.90;;;3.39;100.00;101157.16;5015598;28;20046;-78
2023/11/18 08:15:42;;;;;;;139.57;44.47;;;4.40;99.90;;;3.53;100.00;101182.72;5011763;28;20041;-78
2023/11/18 08:18:11;;;;;;;144.70;44.70;;;4.40;99.90;;;3.54;100.00;101181.72;5014576;28;20461;-78
2023/11/18 08:20:38;;;;;;;134.25;44.80;;;4.50;99.90;;;3.70;100.00;101180.13;5016587;28;20040;-78
2023/11/18 08:23:06;;;;;;;136.93;44.05;;;4.60;99.90;;;3.97;100.00;101184.53;5015279;28;20065;-78
2023/11/18 08:25:36;;;;;;;140.35;45.60;;;4.80;99.90;;;3.97;100.00;101197.16;5013119;28;20093;-79
2023/11/18 08:28:03;;;;;;;133.20;44.47;;;4.90;99.90;;;3.96;100.00;101203.56;5012221;28;20091;-78
2023/11/18 08:30:29;;;;;;;129.50;43.67;;;5.00;99.90;;;4.03;100.00;101223.53;5018376;28;20044;-78
2023/11/18 08:32:55;;;;;;;126.32;44.90;;;5.00;99.90;;;4.15;100.00;101238.47;5011518;28;20038;-77
2023/11/18 08:35:21;;;;;;;122.30;43.05;;;5.10;99.90;;;4.06;100.00;101243.97;5028225;28;20100;-77
2023/11/18 08:37:47;;;;;;;116.53;42.00;;;5.20;99.90;;;4.12;100.00;101254.97;5011731;28;20067;-78
2023/11/18 08:40:20;;;;;;;108.18;39.45;;;5.20;99.90;;;4.31;100.00;101269.28;5011862;28;20087;-78
2023/11/18 08:42:49;;;;;;;97.93;39.55;;;5.30;99.90;;;4.39;100.00;101280.13;5010788;28;20963;-78
2023/11/18 08:45:31;;;;;;;94.25;38.65;;;5.40;99.90;;;4.31;100.00;101302.53;5010527;28;20033;-78
2023/11/18 08:48:04;;;;;;;94.88;38.10;;;5.40;99.90;;;4.35;100.00;101321.97;5016787;28;20472;-78
2023/11/18 08:50:31;;;;;;;93.43;37.33;;;5.40;99.90;;;4.43;100.00;101338.22;5020463;28;20160;-77
2023/11/18 08:52:59;;;;;;;85.45;35.53;;;5.40;99.90;;;4.36;100.00;101364.19;5035646;28;20034;-78
2023/11/18 08:55:38;;;;;;;81.13;35.40;;;5.40;99.90;;;4.58;100.00;101383.59;5012261;28;20065;-78
2023/11/18 08:58:15;;;;;;;73.88;31.85;;;5.50;99.90;;;4.54;100.00;101409.25;5012071;28;20482;-78
2023/11/18 09:03:34;;;;;;;69.32;32.60;;;5.60;99.90;;;4.65;100.00;101454.09;5016298;28;20048;-78
2023/11/18 09:06:05;;;;;;;75.03;32.28;;;5.60;99.90;;;4.71;100.00;101462.41;5011418;28;20041;-78
2023/11/18 09:08:38;;;;;;;67.35;30.25;;;5.70;99.90;;;4.84;100.00;101472.81;5030761;28;20111;-78
2023/11/18 09:11:06;;;;;;;69.28;31.08;;;5.80;99.90;;;4.69;100.00;101467.13;5011952;28;20130;-77
2023/11/18 09:13:34;;;;;;;68.70;30.77;;;5.90;99.90;;;4.76;100.00;101470.06;5011971;28;20029;-77
2023/11/18 09:16:03;;;;;;;;;;;5.90;99.90;;;4.96;100.00;101465.28;5015618;28;20045;-77
2023/11/18 09:18:32;;;;;;;64.17;28.83;;;5.90;99.90;;;4.73;100.00;101464.97;5035906;28;19917;-77
2023/11/18 09:21:01;;;;;;;68.22;27.83;;;5.90;99.90;;;4.68;100.00;101460.03;5018117;28;20375;-77
2023/11/18 09:23:29;;;;;;;61.13;28.63;;;5.90;99.90;;;4.74;100.00;101477.47;5019623;28;20037;-78
2023/11/18 09:25:54;;;;;;;;;;;5.90;99.90;;;4.71;100.00;101470.50;5024716;28;20033;-78
2023/11/18 09:28:24;;;;;;;66.40;28.63;;;5.90;99.90;;;4.74;100.00;101472.91;5018922;28;19945;-78
2023/11/18 09:30:53;;;;;;;66.28;28.80;;;5.90;99.90;;;4.92;100.00;101466.59;5021450;28;20505;-78
2023/11/18 09:33:28;;;;;;;64.72;27.80;;;6.00;99.90;;;5.00;100.00;101445.00;5017469;28;20025;-79
2023/11/18 09:36:07;;;;;;;63.42;27.98;;;6.20;99.90;;;5.31;100.00;101471.56;5024023;28;20045;-77
2023/11/18 09:38:40;;;;;;;61.78;27.27;;;6.50;99.90;;;5.37;100.00;101480.88;5029921;28;20033;-78
2023/11/18 09:41:13;;;;;;;56.20;25.45;;;6.70;99.90;;;5.61;100.00;101490.97;5019123;28;20056;-78
2023/11/18 09:43:47;;;;;;;55.13;24.75;;;6.90;99.90;;;5.41;100.00;101506.59;5028554;28;20064;-79
2023/11/18 09:46:21;;;;;;;49.78;22.30;;;6.80;99.90;;;5.25;100.00;101510.06;5024866;28;20037;-78
2023/11/18 09:49:02;;;;;;;48.95;22.65;;;6.60;99.90;;;5.32;100.00;101527.38;5017331;28;20030;-78
2023/11/18 09:51:37;;;;;;;46.33;20.45;;;6.50;99.90;;;5.17;100.00;101534.38;5012421;28;20033;-79
2023/11/18 09:54:41;;;;;;;45.72;20.17;;;6.40;99.90;;;5.51;100.00;101549.78;5026111;28;20037;-78
2023/11/18 09:57:31;;;;;;;42.53;19.33;;;6.50;99.90;;;5.51;100.00;101552.50;5023423;28;20152;-79
2023/11/18 10:00:19;;;;;;;44.63;19.58;;;6.70;99.90;;;5.65;100.00;101569.16;5013805;28;20054;-79
2023/11/18 10:02:47;;;;;;;43.90;20.27;;;6.80;99.90;;;5.50;100.00;101568.91;5015294;28;20366;-78
2023/11/18 10:05:15;;;;;;;42.75;19.88;;;6.80;99.90;;;6.00;100.00;101570.84;5015151;28;20041;-78
2023/11/18 10:07:47;;;;;;;44.63;19.80;;;7.00;99.90;;;7.36;100.00;101567.06;5024590;28;20060;-78
2023/11/18 10:10:16;;;;;;;40.22;18.70;;;7.80;99.90;;;7.95;100.00;101565.81;5018550;28;20437;-78
2023/11/18 10:12:46;;;;;;;36.30;17.60;;;9.00;99.90;;;8.80;100.00;101566.03;5017747;28;20396;-79
2023/11/18 10:15:14;;;;;;;38.88;16.80;;;9.90;99.90;;;9.20;100.00;101545.75;5017416;28;20113;-78